createdAt,value
2018-06-15T00:00:27.028Z,17.30
2018-06-15T00:01:01.551Z,17.30
2018-06-15T00:01:35.575Z,17.30
2018-06-15T00:02:10.605Z,17.30
2018-06-15T00:02:48.980Z,17.30
2018-06-15T00:03:23.123Z,17.20
2018-06-15T00:03:57.180Z,17.20
2018-06-15T00:04:31.413Z,17.30
2018-06-15T00:05:05.956Z,17.30
2018-06-15T00:05:39.996Z,17.30
2018-06-15T00:06:14.077Z,17.30
2018-06-15T00:06:49.033Z,17.20
2018-06-15T00:07:23.031Z,17.30
2018-06-15T00:07:57.274Z,17.30
2018-06-15T00:08:31.536Z,17.30
2018-06-15T00:09:07.677Z,17.30
2018-06-15T00:09:42.598Z,17.30
2018-06-15T00:10:16.974Z,17.30
2018-06-15T00:10:52.507Z,17.20
2018-06-15T00:11:27.684Z,17.30
2018-06-15T00:12:35.610Z,17.30
2018-06-15T00:13:09.832Z,17.30
2018-06-15T00:13:43.830Z,17.30
2018-06-15T00:14:17.990Z,17.30
2018-06-15T00:14:53.124Z,17.20
2018-06-15T00:16:01.022Z,17.30
2018-06-15T00:16:35.090Z,17.20
2018-06-15T00:17:43.010Z,17.20
2018-06-15T00:18:17.105Z,17.20
2018-06-15T00:18:51.960Z,17.20
2018-06-15T00:19:26.323Z,17.20
2018-06-15T00:20:00.484Z,17.20
2018-06-15T00:20:34.692Z,17.20
2018-06-15T00:21:08.726Z,17.20
2018-06-15T00:21:42.833Z,17.20
2018-06-15T00:22:16.832Z,17.20
2018-06-15T00:22:51.498Z,17.20
2018-06-15T00:23:25.556Z,17.20
2018-06-15T00:23:59.746Z,17.20
2018-06-15T00:24:33.816Z,17.20
2018-06-15T00:25:08.174Z,17.20
2018-06-15T00:25:42.272Z,17.20
2018-06-15T00:26:16.676Z,17.20
2018-06-15T00:27:24.670Z,17.20
2018-06-15T00:27:59.754Z,17.20
2018-06-15T00:28:34.069Z,17.20
2018-06-15T00:29:08.160Z,17.20
2018-06-15T00:29:42.330Z,17.20
2018-06-15T00:30:16.735Z,17.20
2018-06-15T00:30:52.032Z,17.20
2018-06-15T00:31:26.802Z,17.20
2018-06-15T00:32:01.056Z,17.20
2018-06-15T00:32:35.232Z,17.20
2018-06-15T00:33:09.454Z,17.20
2018-06-15T00:33:44.223Z,17.20
2018-06-15T00:34:18.529Z,17.10
2018-06-15T00:34:53.468Z,17.20
2018-06-15T00:35:27.850Z,17.20
2018-06-15T00:36:02.055Z,17.10
2018-06-15T00:36:36.238Z,17.10
2018-06-15T00:37:10.457Z,17.10
2018-06-15T00:38:18.554Z,17.10
2018-06-15T00:38:52.709Z,17.10
2018-06-15T00:39:26.798Z,17.10
2018-06-15T00:40:01.138Z,17.10
2018-06-15T00:40:35.626Z,17.10
2018-06-15T00:41:10.025Z,17.10
2018-06-15T00:41:45.314Z,17.10
2018-06-15T00:42:19.617Z,17.10
2018-06-15T00:42:53.709Z,17.10
2018-06-15T00:44:01.759Z,17.10
2018-06-15T00:45:39.497Z,17.10
2018-06-15T00:46:13.819Z,17.10
2018-06-15T00:46:48.635Z,17.10
2018-06-15T00:47:23.286Z,17.10
2018-06-15T00:47:58.757Z,17.10
2018-06-15T00:48:32.804Z,17.10
2018-06-15T00:49:07.455Z,17.10
2018-06-15T00:49:41.553Z,17.10
2018-06-15T00:50:16.629Z,17.10
2018-06-15T00:50:51.471Z,17.10
2018-06-15T00:51:25.539Z,17.10
2018-06-15T00:51:59.605Z,17.10
2018-06-15T00:53:07.899Z,17.10
2018-06-15T00:54:16.109Z,17.10
2018-06-15T00:54:50.874Z,17.10
2018-06-15T00:55:25.021Z,17.10
2018-06-15T00:56:33.577Z,17.10
2018-06-15T00:57:18.873Z,17.10
2018-06-15T00:57:53.003Z,17.10
2018-06-15T00:58:27.629Z,17.10
2018-06-15T00:59:02.010Z,17.10
2018-06-15T01:00:09.863Z,17.10
2018-06-15T01:00:44.064Z,17.00
2018-06-15T01:01:18.134Z,17.10
2018-06-15T01:01:52.433Z,17.10
2018-06-15T01:02:26.614Z,17.10
2018-06-15T01:03:00.703Z,17.10
2018-06-15T01:04:08.494Z,17.10
2018-06-15T01:05:16.734Z,17.10
2018-06-15T01:05:50.855Z,17.10
2018-06-15T01:06:25.236Z,17.10
2018-06-15T01:06:59.465Z,17.10
2018-06-15T01:07:33.694Z,17.00
2018-06-15T01:08:07.961Z,17.00
2018-06-15T01:08:42.368Z,17.00
2018-06-15T01:09:16.498Z,17.00
2018-06-15T01:09:50.798Z,17.00
2018-06-15T01:10:24.973Z,17.00
2018-06-15T01:10:59.515Z,17.00
2018-06-15T01:11:33.617Z,17.00
2018-06-15T01:12:07.865Z,17.00
2018-06-15T01:12:41.922Z,17.00
2018-06-15T01:13:16.241Z,17.00
2018-06-15T01:14:24.364Z,17.10
2018-06-15T01:14:58.545Z,17.00
2018-06-15T01:15:32.523Z,17.00
2018-06-15T01:16:07.126Z,17.00
2018-06-15T01:16:41.960Z,17.00
2018-06-15T01:17:16.043Z,17.00
2018-06-15T01:17:49.994Z,17.00
2018-06-15T01:18:24.005Z,17.00
2018-06-15T01:18:58.259Z,17.00
2018-06-15T01:20:39.753Z,17.00
2018-06-15T01:21:14.413Z,17.00
2018-06-15T01:21:48.629Z,17.00
2018-06-15T01:22:23.175Z,17.00
2018-06-15T01:22:57.785Z,17.00
2018-06-15T01:24:06.279Z,17.00
2018-06-15T01:24:40.325Z,17.00
2018-06-15T01:25:14.739Z,17.00
2018-06-15T01:25:48.785Z,17.00
2018-06-15T01:26:23.239Z,17.00
2018-06-15T01:26:57.947Z,17.00
2018-06-15T01:27:32.367Z,17.00
2018-06-15T01:28:07.103Z,17.00
2018-06-15T01:28:41.149Z,17.00
2018-06-15T01:29:15.783Z,17.00
2018-06-15T01:29:49.831Z,17.00
2018-06-15T01:30:57.953Z,16.90
2018-06-15T01:31:32.162Z,17.00
2018-06-15T01:32:06.256Z,17.00
2018-06-15T01:32:40.307Z,17.00
2018-06-15T01:33:14.478Z,16.90
2018-06-15T01:33:48.647Z,16.90
2018-06-15T01:34:22.827Z,16.90
2018-06-15T01:35:30.803Z,16.90
2018-06-15T01:36:05.007Z,16.90
2018-06-15T01:36:39.051Z,16.90
2018-06-15T01:37:13.091Z,16.90
2018-06-15T01:37:47.429Z,16.90
2018-06-15T01:38:21.629Z,16.90
2018-06-15T01:38:55.869Z,16.90
2018-06-15T01:39:30.763Z,16.90
2018-06-15T01:40:04.796Z,16.90
2018-06-15T01:40:38.886Z,16.90
2018-06-15T01:41:13.557Z,16.90
2018-06-15T01:41:47.915Z,16.90
2018-06-15T01:42:22.207Z,16.90
2018-06-15T01:42:56.471Z,16.90
2018-06-15T01:43:30.543Z,16.90
2018-06-15T01:44:04.875Z,16.90
2018-06-15T01:44:38.857Z,16.90
2018-06-15T01:45:12.958Z,16.90
2018-06-15T01:45:47.139Z,16.90
2018-06-15T01:46:21.162Z,16.90
2018-06-15T01:46:55.535Z,16.90
2018-06-15T01:47:29.861Z,16.90
2018-06-15T01:48:04.285Z,16.90
2018-06-15T01:48:38.270Z,16.90
2018-06-15T01:49:12.435Z,16.90
2018-06-15T01:49:46.539Z,16.90
2018-06-15T01:50:20.709Z,16.90
2018-06-15T01:50:54.973Z,16.90
2018-06-15T01:51:29.281Z,16.90
2018-06-15T01:52:37.291Z,16.90
2018-06-15T01:53:45.171Z,16.90
2018-06-15T01:54:53.041Z,16.90
2018-06-15T01:55:27.224Z,16.90
2018-06-15T01:56:01.435Z,16.80
2018-06-15T01:56:35.489Z,16.90
2018-06-15T01:57:09.668Z,16.90
2018-06-15T01:58:17.548Z,16.80
2018-06-15T01:58:52.539Z,16.80
2018-06-15T01:59:26.549Z,16.90
2018-06-15T02:00:00.727Z,16.90
2018-06-15T02:00:34.812Z,16.90
2018-06-15T02:01:08.940Z,16.80
2018-06-15T02:01:43.203Z,16.90
2018-06-15T02:02:17.217Z,16.80
2018-06-15T02:02:51.439Z,16.90
2018-06-15T02:03:25.545Z,16.80
2018-06-15T02:03:59.569Z,16.80
2018-06-15T02:04:34.098Z,16.80
2018-06-15T02:05:42.179Z,16.80
2018-06-15T02:06:16.199Z,16.80
2018-06-15T02:06:50.432Z,16.80
2018-06-15T02:07:24.603Z,16.80
2018-06-15T02:07:58.688Z,16.80
2018-06-15T02:08:32.713Z,16.80
2018-06-15T02:09:07.811Z,16.80
2018-06-15T02:09:41.872Z,16.80
2018-06-15T02:10:16.016Z,16.80
2018-06-15T02:10:50.211Z,16.80
2018-06-15T02:11:58.376Z,16.80
2018-06-15T02:12:32.399Z,16.80
2018-06-15T02:13:06.497Z,16.80
2018-06-15T02:13:40.618Z,16.80
2018-06-15T02:14:14.775Z,16.80
2018-06-15T02:14:49.618Z,16.80
2018-06-15T02:15:23.838Z,16.80
2018-06-15T02:15:57.903Z,16.80
2018-06-15T02:16:32.528Z,16.80
2018-06-15T02:17:06.536Z,16.80
2018-06-15T02:18:14.230Z,16.80
2018-06-15T02:18:49.551Z,16.80
2018-06-15T02:19:57.407Z,16.80
2018-06-15T02:20:31.673Z,16.80
2018-06-15T02:21:05.817Z,16.80
2018-06-15T02:21:39.941Z,16.80
2018-06-15T02:22:14.038Z,16.80
2018-06-15T02:22:49.893Z,16.80
2018-06-15T02:23:24.100Z,16.80
2018-06-15T02:24:12.788Z,16.80
2018-06-15T02:24:46.866Z,16.80
2018-06-15T02:25:20.994Z,16.80
2018-06-15T02:26:59.967Z,16.80
2018-06-15T02:27:33.936Z,16.80
2018-06-15T02:28:07.971Z,16.80
2018-06-15T02:28:42.006Z,16.80
2018-06-15T02:29:15.984Z,16.80
2018-06-15T02:29:50.094Z,16.80
2018-06-15T02:30:24.156Z,16.80
2018-06-15T02:30:58.398Z,16.80
2018-06-15T02:31:32.580Z,16.80
2018-06-15T02:32:06.564Z,16.80
2018-06-15T02:32:40.572Z,16.80
2018-06-15T02:33:14.736Z,16.80
2018-06-15T02:33:48.790Z,16.80
2018-06-15T02:34:22.824Z,16.80
2018-06-15T02:34:57.024Z,16.80
2018-06-15T02:35:31.144Z,16.80
2018-06-15T02:36:05.208Z,16.80
2018-06-15T02:36:39.560Z,16.80
2018-06-15T02:37:14.032Z,16.70
2018-06-15T02:37:48.212Z,16.80
2018-06-15T02:38:22.455Z,16.80
2018-06-15T02:38:56.750Z,16.70
2018-06-15T02:39:30.814Z,16.70
2018-06-15T02:40:05.080Z,16.70
2018-06-15T02:40:39.275Z,16.80
2018-06-15T02:41:13.474Z,16.80
2018-06-15T02:41:47.722Z,16.80
2018-06-15T02:42:22.169Z,16.70
2018-06-15T02:43:31.202Z,16.80
2018-06-15T02:44:06.165Z,16.80
2018-06-15T02:44:40.277Z,16.80
2018-06-15T02:45:14.535Z,16.80
2018-06-15T02:45:48.674Z,16.80
2018-06-15T02:46:23.045Z,16.80
2018-06-15T02:46:57.348Z,16.80
2018-06-15T02:47:31.495Z,16.80
2018-06-15T02:48:06.113Z,16.80
2018-06-15T02:48:40.326Z,16.80
2018-06-15T02:49:14.601Z,16.80
2018-06-15T02:49:48.694Z,16.80
2018-06-15T02:50:22.716Z,16.80
2018-06-15T02:50:56.858Z,16.80
2018-06-15T02:51:31.286Z,16.80
2018-06-15T02:52:05.653Z,16.80
2018-06-15T02:52:40.035Z,16.80
2018-06-15T02:53:14.165Z,16.80
2018-06-15T02:53:48.380Z,16.80
2018-06-15T02:54:23.012Z,16.80
2018-06-15T02:55:31.180Z,16.80
2018-06-15T02:56:05.776Z,16.80
2018-06-15T02:56:40.250Z,16.80
2018-06-15T02:57:14.622Z,16.80
2018-06-15T02:57:48.852Z,16.80
2018-06-15T02:58:23.085Z,16.80
2018-06-15T02:58:57.311Z,16.80
2018-06-15T02:59:31.541Z,16.80
2018-06-15T03:00:05.875Z,16.80
2018-06-15T03:00:40.240Z,16.80
2018-06-15T03:01:14.326Z,16.80
2018-06-15T03:01:48.436Z,16.80
2018-06-15T03:02:22.574Z,16.80
2018-06-15T03:02:56.760Z,16.80
2018-06-15T03:03:31.290Z,16.80
2018-06-15T03:04:05.626Z,16.80
2018-06-15T03:04:39.939Z,16.80
2018-06-15T03:05:14.172Z,16.80
2018-06-15T03:05:48.446Z,16.80
2018-06-15T03:06:22.660Z,16.80
2018-06-15T03:06:56.892Z,16.80
2018-06-15T03:07:31.586Z,16.80
2018-06-15T03:08:05.875Z,16.80
2018-06-15T03:08:40.039Z,16.80
2018-06-15T03:09:14.520Z,16.80
2018-06-15T03:09:48.850Z,16.80
2018-06-15T03:10:23.284Z,16.80
2018-06-15T03:10:57.696Z,16.80
2018-06-15T03:11:32.074Z,16.80
2018-06-15T03:12:07.032Z,16.80
2018-06-15T03:12:41.132Z,16.80
2018-06-15T03:13:15.380Z,16.80
2018-06-15T03:13:49.635Z,16.80
2018-06-15T03:14:24.034Z,16.80
2018-06-15T03:15:32.000Z,16.80
2018-06-15T03:16:06.505Z,16.80
2018-06-15T03:16:40.688Z,16.80
2018-06-15T03:17:14.994Z,16.80
2018-06-15T03:17:49.416Z,16.80
2018-06-15T03:18:23.482Z,16.80
2018-06-15T03:18:57.645Z,16.70
2018-06-15T03:19:32.456Z,16.70
2018-06-15T03:20:06.736Z,16.70
2018-06-15T03:20:40.892Z,16.70
2018-06-15T03:21:14.914Z,16.70
2018-06-15T03:21:49.106Z,16.60
2018-06-15T03:22:23.189Z,16.60
2018-06-15T03:22:57.192Z,16.60
2018-06-15T03:23:31.256Z,16.60
2018-06-15T03:24:05.916Z,16.60
2018-06-15T03:24:40.086Z,16.60
2018-06-15T03:25:14.165Z,16.60
2018-06-15T03:25:48.167Z,16.60
2018-06-15T03:26:22.278Z,16.60
2018-06-15T03:27:36.894Z,16.60
2018-06-15T03:28:11.085Z,16.60
2018-06-15T03:28:51.727Z,16.60
2018-06-15T03:29:26.292Z,16.60
2018-06-15T03:30:00.831Z,16.60
2018-06-15T03:30:34.987Z,16.50
2018-06-15T03:31:09.198Z,16.50
2018-06-15T03:31:43.516Z,16.50
2018-06-15T03:32:17.742Z,16.50
2018-06-15T03:32:52.212Z,16.50
2018-06-15T03:33:26.214Z,16.40
2018-06-15T03:34:00.358Z,16.50
2018-06-15T03:34:35.170Z,16.50
2018-06-15T03:35:09.530Z,16.40
2018-06-15T03:35:50.319Z,16.40
2018-06-15T03:36:24.331Z,16.40
2018-06-15T03:36:58.508Z,16.40
2018-06-15T03:37:32.863Z,16.40
2018-06-15T03:38:07.005Z,16.40
2018-06-15T03:38:41.350Z,16.40
2018-06-15T03:39:15.511Z,16.40
2018-06-15T03:39:49.558Z,16.40
2018-06-15T03:40:23.690Z,16.40
2018-06-15T03:40:57.832Z,16.40
2018-06-15T03:41:32.023Z,16.40
2018-06-15T03:42:06.506Z,16.40
2018-06-15T03:43:14.449Z,16.40
2018-06-15T03:43:48.612Z,16.40
2018-06-15T03:44:22.736Z,16.40
2018-06-15T03:44:57.037Z,16.50
2018-06-15T03:45:31.270Z,16.40
2018-06-15T03:46:05.541Z,16.40
2018-06-15T03:46:39.913Z,16.40
2018-06-15T03:47:14.016Z,16.40
2018-06-15T03:47:48.246Z,16.40
2018-06-15T03:48:22.242Z,16.40
2018-06-15T03:48:56.233Z,16.40
2018-06-15T03:49:30.286Z,16.40
2018-06-15T03:50:04.836Z,16.40
2018-06-15T03:50:38.866Z,16.40
2018-06-15T03:51:13.054Z,16.40
2018-06-15T03:51:47.100Z,16.40
2018-06-15T03:52:21.605Z,16.40
2018-06-15T03:52:55.492Z,16.40
2018-06-15T03:53:29.362Z,16.40
2018-06-15T03:54:03.760Z,16.40
2018-06-15T03:54:37.630Z,16.50
2018-06-15T03:55:11.660Z,16.50
2018-06-15T03:55:45.570Z,16.50
2018-06-15T03:56:19.438Z,16.50
2018-06-15T03:56:53.290Z,16.60
2018-06-15T03:57:27.152Z,16.60
2018-06-15T03:58:00.997Z,16.60
2018-06-15T03:58:34.872Z,16.60
2018-06-15T03:59:08.772Z,16.60
2018-06-15T03:59:42.602Z,16.60
2018-06-15T04:00:16.474Z,16.60
2018-06-15T04:00:50.696Z,16.60
2018-06-15T04:01:24.529Z,16.60
2018-06-15T04:01:58.392Z,16.60
2018-06-15T04:02:32.236Z,16.70
2018-06-15T04:03:06.124Z,16.70
2018-06-15T04:03:39.976Z,16.70
2018-06-15T04:04:13.826Z,16.70
2018-06-15T04:04:47.729Z,16.70
2018-06-15T04:05:21.626Z,16.70
2018-06-15T04:05:56.120Z,16.70
2018-06-15T04:06:29.978Z,16.70
2018-06-15T04:07:04.528Z,16.70
2018-06-15T04:08:12.845Z,16.70
2018-06-15T04:08:46.708Z,16.80
2018-06-15T04:09:20.589Z,16.80
2018-06-15T04:09:54.418Z,16.80
2018-06-15T04:10:28.306Z,16.80
2018-06-15T04:11:02.528Z,16.80
2018-06-15T04:11:36.552Z,16.80
2018-06-15T04:12:10.433Z,16.90
2018-06-15T04:12:44.442Z,16.80
2018-06-15T04:13:18.345Z,16.90
2018-06-15T04:13:52.395Z,16.90
2018-06-15T04:14:26.294Z,16.90
2018-06-15T04:15:00.190Z,16.90
2018-06-15T04:15:34.072Z,16.90
2018-06-15T04:16:08.644Z,17.00
2018-06-15T04:16:42.528Z,17.00
2018-06-15T04:17:16.386Z,17.00
2018-06-15T04:17:54.926Z,17.00
2018-06-15T04:18:28.778Z,17.00
2018-06-15T04:19:02.974Z,17.00
2018-06-15T04:19:36.818Z,17.10
2018-06-15T04:20:11.012Z,17.10
2018-06-15T04:20:44.874Z,17.10
2018-06-15T04:21:18.766Z,17.10
2018-06-15T04:21:52.654Z,17.20
2018-06-15T04:22:26.528Z,17.20
2018-06-15T04:23:01.235Z,17.20
2018-06-15T04:23:35.224Z,17.20
2018-06-15T04:24:09.150Z,17.20
2018-06-15T04:24:43.046Z,17.20
2018-06-15T04:25:16.932Z,17.20
2018-06-15T04:25:51.108Z,17.30
2018-06-15T04:26:25.241Z,17.30
2018-06-15T04:27:33.032Z,17.30
2018-06-15T04:28:40.428Z,17.30
2018-06-15T04:29:14.291Z,17.30
2018-06-15T04:29:48.150Z,17.40
2018-06-15T04:30:21.992Z,17.40
2018-06-15T04:32:03.089Z,17.40
2018-06-15T04:32:37.008Z,17.40
2018-06-15T04:33:10.972Z,17.40
2018-06-15T04:33:44.866Z,17.40
2018-06-15T04:34:18.776Z,17.40
2018-06-15T04:34:52.724Z,17.40
2018-06-15T04:35:27.377Z,17.40
2018-06-15T04:36:01.259Z,17.40
2018-06-15T04:36:35.160Z,17.40
2018-06-15T04:37:09.033Z,17.50
2018-06-15T04:37:43.077Z,17.50
2018-06-15T04:38:16.951Z,17.50
2018-06-15T04:38:51.433Z,17.50
2018-06-15T04:39:25.309Z,17.60
2018-06-15T04:39:59.147Z,17.60
2018-06-15T04:40:33.017Z,17.60
2018-06-15T04:41:40.786Z,17.70
2018-06-15T04:42:14.649Z,17.70
2018-06-15T04:42:48.510Z,17.70
2018-06-15T04:43:22.382Z,17.80
2018-06-15T04:43:56.342Z,17.80
2018-06-15T04:44:30.426Z,17.80
2018-06-15T04:45:04.271Z,17.80
2018-06-15T04:45:38.123Z,17.90
2018-06-15T04:46:11.991Z,17.90
2018-06-15T04:46:45.887Z,17.90
2018-06-15T04:47:20.049Z,18.00
2018-06-15T04:47:53.961Z,18.00
2018-06-15T04:48:27.777Z,18.00
2018-06-15T04:49:01.685Z,18.00
2018-06-15T04:49:35.519Z,18.10
2018-06-15T04:50:10.026Z,18.10
2018-06-15T04:50:43.853Z,18.20
2018-06-15T04:51:18.059Z,18.20
2018-06-15T04:51:51.949Z,18.20
2018-06-15T04:52:59.335Z,18.30
2018-06-15T04:53:33.285Z,18.30
2018-06-15T04:54:07.456Z,18.40
2018-06-15T04:54:41.341Z,18.40
2018-06-15T04:55:15.246Z,18.50
2018-06-15T04:55:49.116Z,18.50
2018-06-15T04:56:22.993Z,18.50
2018-06-15T04:57:31.135Z,18.60
2018-06-15T04:58:05.394Z,18.60
2018-06-15T04:58:39.283Z,18.60
2018-06-15T04:59:13.247Z,18.70
2018-06-15T04:59:47.090Z,18.70
2018-06-15T05:00:20.973Z,18.70
2018-06-15T05:01:28.367Z,18.70
2018-06-15T05:02:02.260Z,18.80
2018-06-15T05:03:13.675Z,18.90
2018-06-15T05:03:47.552Z,18.90
2018-06-15T05:04:21.409Z,19.00
2018-06-15T05:04:55.285Z,19.00
2018-06-15T05:06:02.688Z,19.00
2018-06-15T05:06:36.518Z,19.10
2018-06-15T05:07:10.433Z,19.10
2018-06-15T05:07:44.275Z,19.10
2018-06-15T05:08:18.159Z,19.20
2018-06-15T05:08:52.359Z,19.20
2018-06-15T05:09:26.237Z,19.20
2018-06-15T05:10:00.085Z,19.30
2018-06-15T05:10:33.925Z,19.30
2018-06-15T05:11:07.758Z,19.30
2018-06-15T05:11:41.779Z,19.30
2018-06-15T05:12:16.123Z,19.30
2018-06-15T05:12:50.014Z,19.40
2018-06-15T05:13:24.750Z,19.40
2018-06-15T05:13:58.641Z,19.40
2018-06-15T05:14:32.497Z,19.40
2018-06-15T05:15:06.737Z,19.40
2018-06-15T05:15:40.819Z,19.30
2018-06-15T05:16:14.695Z,19.40
2018-06-15T05:16:48.551Z,19.40
2018-06-15T05:17:22.485Z,19.40
2018-06-15T05:17:56.331Z,19.40
2018-06-15T05:18:30.218Z,19.30
2018-06-15T05:19:37.844Z,19.40
2018-06-15T05:20:12.268Z,19.40
2018-06-15T05:20:46.461Z,19.40
2018-06-15T05:21:20.319Z,19.40
2018-06-15T05:21:54.451Z,19.40
2018-06-15T05:22:28.477Z,19.40
2018-06-15T05:23:02.339Z,19.40
2018-06-15T05:23:36.230Z,19.40
2018-06-15T05:24:10.416Z,19.40
2018-06-15T05:24:44.589Z,19.40
2018-06-15T05:25:18.461Z,19.40
2018-06-15T05:25:52.728Z,19.30
2018-06-15T05:26:26.739Z,19.30
2018-06-15T05:27:00.601Z,19.30
2018-06-15T05:27:34.489Z,19.30
2018-06-15T05:28:08.342Z,19.30
2018-06-15T05:28:42.247Z,19.20
2018-06-15T05:29:16.123Z,19.20
2018-06-15T05:29:49.968Z,19.20
2018-06-15T05:30:23.843Z,19.20
2018-06-15T05:32:05.404Z,19.10
2018-06-15T05:32:39.335Z,19.10
2018-06-15T05:33:13.197Z,19.10
2018-06-15T05:33:47.075Z,19.10
2018-06-15T05:34:20.943Z,19.10
2018-06-15T05:34:54.815Z,19.10
2018-06-15T05:35:28.687Z,19.10
2018-06-15T05:36:02.526Z,19.10
2018-06-15T05:36:36.706Z,19.10
2018-06-15T05:37:10.561Z,19.00
2018-06-15T05:37:44.493Z,19.10
2018-06-15T05:38:18.327Z,19.10
2018-06-15T05:38:52.178Z,19.10
2018-06-15T05:39:26.041Z,19.10
2018-06-15T05:39:59.923Z,19.10
2018-06-15T05:40:34.435Z,19.10
2018-06-15T05:41:08.302Z,19.10
2018-06-15T05:41:42.507Z,19.10
2018-06-15T05:42:16.405Z,19.10
2018-06-15T05:42:50.289Z,19.10
2018-06-15T05:43:24.499Z,19.10
2018-06-15T05:43:58.361Z,19.10
2018-06-15T05:45:05.803Z,19.10
2018-06-15T05:45:39.661Z,19.10
2018-06-15T05:46:13.855Z,19.20
2018-06-15T05:46:47.913Z,19.20
2018-06-15T05:47:21.989Z,19.20
2018-06-15T05:47:55.887Z,19.20
2018-06-15T05:48:30.096Z,19.30
2018-06-15T05:49:04.253Z,19.30
2018-06-15T05:49:38.532Z,19.40
2018-06-15T05:50:12.427Z,19.40
2018-06-15T05:50:46.345Z,19.40
2018-06-15T05:51:20.221Z,19.50
2018-06-15T05:51:54.115Z,19.50
2018-06-15T05:53:01.574Z,19.50
2018-06-15T05:53:35.659Z,19.60
2018-06-15T05:54:09.531Z,19.60
2018-06-15T05:54:44.130Z,19.60
2018-06-15T05:55:18.349Z,19.60
2018-06-15T05:55:52.164Z,19.70
2018-06-15T05:56:26.445Z,19.70
2018-06-15T05:57:00.323Z,19.70
2018-06-15T05:57:34.212Z,19.80
2018-06-15T05:58:08.529Z,19.80
2018-06-15T05:58:42.391Z,19.90
2018-06-15T05:59:16.214Z,19.90
2018-06-15T05:59:50.033Z,19.90
2018-06-15T06:00:23.902Z,19.90
2018-06-15T06:00:57.823Z,20.00
2018-06-15T06:01:31.702Z,20.00
2018-06-15T06:02:05.970Z,20.00
2018-06-15T06:02:39.809Z,20.00
2018-06-15T06:03:17.273Z,20.00
2018-06-15T06:03:51.223Z,20.00
2018-06-15T06:04:25.249Z,19.90
2018-06-15T06:04:59.123Z,19.90
2018-06-15T06:05:32.999Z,19.90
2018-06-15T06:06:40.741Z,19.90
2018-06-15T06:07:14.605Z,19.90
2018-06-15T06:07:48.503Z,19.90
2018-06-15T06:08:22.393Z,19.90
2018-06-15T06:08:56.243Z,19.90
2018-06-15T06:09:30.135Z,20.00
2018-06-15T06:10:04.597Z,20.00
2018-06-15T06:10:38.531Z,20.00
2018-06-15T06:11:12.408Z,20.00
2018-06-15T06:11:46.619Z,20.00
2018-06-15T06:12:20.471Z,20.00
2018-06-15T06:12:54.343Z,20.00
2018-06-15T06:13:28.201Z,20.00
2018-06-15T06:14:02.083Z,19.90
2018-06-15T06:14:36.281Z,19.90
2018-06-15T06:15:10.501Z,19.80
2018-06-15T06:15:44.779Z,19.80
2018-06-15T06:16:18.974Z,19.80
2018-06-15T06:16:53.163Z,19.80
2018-06-15T06:17:27.349Z,19.70
2018-06-15T06:18:01.215Z,19.80
2018-06-15T06:18:35.100Z,19.70
2018-06-15T06:19:08.973Z,19.80
2018-06-15T06:19:42.874Z,19.80
2018-06-15T06:20:16.935Z,19.70
2018-06-15T06:21:24.345Z,19.80
2018-06-15T06:21:58.610Z,19.80
2018-06-15T06:23:06.004Z,19.90
2018-06-15T06:23:39.901Z,19.90
2018-06-15T06:24:13.775Z,19.90
2018-06-15T06:25:21.237Z,19.90
2018-06-15T06:25:55.099Z,20.00
2018-06-15T06:26:28.961Z,20.00
2018-06-15T06:27:02.819Z,20.00
2018-06-15T06:27:36.703Z,20.00
2018-06-15T06:28:10.575Z,20.00
2018-06-15T06:28:44.525Z,20.00
2018-06-15T06:29:18.419Z,19.90
2018-06-15T06:29:52.229Z,19.90
2018-06-15T06:30:26.396Z,19.90
2018-06-15T06:31:00.262Z,19.90
2018-06-15T06:31:34.333Z,19.90
2018-06-15T06:32:08.227Z,19.90
2018-06-15T06:32:42.131Z,20.00
2018-06-15T06:33:16.141Z,20.00
2018-06-15T06:33:50.154Z,20.00
2018-06-15T06:34:24.357Z,20.00
2018-06-15T06:34:58.205Z,20.00
2018-06-15T06:35:32.089Z,20.10
2018-06-15T06:36:05.983Z,20.10
2018-06-15T06:36:39.814Z,20.10
2018-06-15T06:37:13.813Z,20.10
2018-06-15T06:37:47.691Z,20.10
2018-06-15T06:38:21.535Z,20.10
2018-06-15T06:38:55.407Z,20.10
2018-06-15T06:39:29.272Z,20.20
2018-06-15T06:40:03.131Z,20.30
2018-06-15T06:40:36.993Z,20.30
2018-06-15T06:41:10.877Z,20.30
2018-06-15T06:41:44.791Z,20.30
2018-06-15T06:42:18.662Z,20.40
2018-06-15T06:42:52.525Z,20.40
2018-06-15T06:43:26.419Z,20.40
2018-06-15T06:44:00.680Z,20.50
2018-06-15T06:44:34.572Z,20.50
2018-06-15T06:45:08.468Z,20.60
2018-06-15T06:45:42.329Z,20.60
2018-06-15T06:46:16.160Z,20.60
2018-06-15T06:46:51.083Z,20.60
2018-06-15T06:47:24.946Z,20.60
2018-06-15T06:47:58.853Z,20.60
2018-06-15T06:48:32.713Z,20.70
2018-06-15T06:49:06.689Z,20.70
2018-06-15T06:49:40.578Z,20.70
2018-06-15T06:50:48.382Z,20.70
2018-06-15T06:51:22.274Z,20.80
2018-06-15T06:53:03.330Z,20.90
2018-06-15T06:53:37.220Z,20.90
2018-06-15T06:54:45.020Z,21.00
2018-06-15T06:55:18.885Z,21.00
2018-06-15T06:55:52.902Z,21.20
2018-06-15T06:56:27.156Z,21.20
2018-06-15T06:57:01.390Z,21.30
2018-06-15T06:57:35.269Z,21.30
2018-06-15T06:58:09.252Z,21.20
2018-06-15T06:58:43.180Z,21.20
2018-06-15T06:59:17.092Z,21.20
2018-06-15T06:59:50.961Z,21.20
2018-06-15T07:00:25.036Z,21.30
2018-06-15T07:00:58.941Z,21.30
2018-06-15T07:01:32.840Z,21.30
2018-06-15T07:02:06.711Z,21.30
2018-06-15T07:02:40.992Z,21.40
2018-06-15T07:03:14.882Z,21.40
2018-06-15T07:03:48.784Z,21.40
2018-06-15T07:04:22.657Z,21.40
2018-06-15T07:04:56.556Z,21.50
2018-06-15T07:05:30.422Z,21.50
2018-06-15T07:06:04.650Z,21.60
2018-06-15T07:07:12.138Z,21.80
2018-06-15T07:07:46.026Z,21.80
2018-06-15T07:08:53.501Z,21.80
2018-06-15T07:09:27.426Z,21.90
2018-06-15T07:10:01.600Z,21.90
2018-06-15T07:11:09.010Z,21.90
2018-06-15T07:11:42.901Z,21.90
2018-06-15T07:12:16.992Z,21.90
2018-06-15T07:12:51.226Z,21.90
2018-06-15T07:13:25.162Z,21.90
2018-06-15T07:13:59.074Z,21.80
2018-06-15T07:14:32.946Z,21.80
2018-06-15T07:15:06.809Z,21.80
2018-06-15T07:15:40.668Z,21.70
2018-06-15T07:16:14.648Z,21.70
2018-06-15T07:16:48.502Z,21.60
2018-06-15T07:17:22.505Z,21.50
2018-06-15T07:17:56.392Z,21.40
2018-06-15T07:18:30.300Z,21.30
2018-06-15T07:19:04.284Z,21.30
2018-06-15T07:19:38.498Z,21.20
2018-06-15T07:20:12.425Z,21.10
2018-06-15T07:21:19.909Z,21.00
2018-06-15T07:21:53.825Z,21.00
2018-06-15T07:22:27.680Z,21.00
2018-06-15T07:23:01.557Z,21.00
2018-06-15T07:23:35.775Z,20.90
2018-06-15T07:24:09.658Z,20.90
2018-06-15T07:24:43.600Z,20.90
2018-06-15T07:25:17.718Z,20.90
2018-06-15T07:25:51.614Z,20.90
2018-06-15T07:26:25.475Z,20.90
2018-06-15T07:27:32.964Z,21.00
2018-06-15T07:28:40.361Z,21.00
2018-06-15T07:29:14.240Z,21.00
2018-06-15T07:30:55.383Z,21.10
2018-06-15T07:31:29.248Z,21.10
2018-06-15T07:32:03.110Z,21.10
2018-06-15T07:32:36.960Z,21.20
2018-06-15T07:33:10.832Z,21.20
2018-06-15T07:33:44.974Z,21.20
2018-06-15T07:34:52.452Z,21.30
2018-06-15T07:35:26.322Z,21.30
2018-06-15T07:36:00.177Z,21.30
2018-06-15T07:36:34.396Z,21.30
2018-06-15T07:37:08.284Z,21.30
2018-06-15T07:37:42.142Z,21.30
2018-06-15T07:38:16.006Z,21.30
2018-06-15T07:38:49.870Z,21.30
2018-06-15T07:39:24.662Z,21.30
2018-06-15T07:39:58.564Z,21.30
2018-06-15T07:40:32.468Z,21.30
2018-06-15T07:41:06.784Z,21.30
2018-06-15T07:41:40.725Z,21.30
2018-06-15T07:42:48.135Z,21.30
2018-06-15T07:43:22.007Z,21.30
2018-06-15T07:43:55.916Z,21.40
2018-06-15T07:44:29.871Z,21.30
2018-06-15T07:45:03.770Z,21.40
2018-06-15T07:45:37.661Z,21.40
2018-06-15T07:46:11.890Z,21.40
2018-06-15T07:46:45.966Z,21.40
2018-06-15T07:47:19.854Z,21.30
2018-06-15T07:47:54.124Z,21.30
2018-06-15T07:48:27.986Z,21.40
2018-06-15T07:49:35.376Z,21.30
2018-06-15T07:50:09.545Z,21.30
2018-06-15T07:50:43.424Z,21.30
2018-06-15T07:51:17.976Z,21.30
2018-06-15T07:51:51.839Z,21.20
2018-06-15T07:52:25.727Z,21.30
2018-06-15T07:52:59.617Z,21.30
2018-06-15T07:53:33.835Z,21.30
2018-06-15T07:54:07.719Z,21.20
2018-06-15T07:54:41.602Z,21.20
2018-06-15T07:55:15.504Z,21.20
2018-06-15T07:55:49.347Z,21.10
2018-06-15T07:56:23.372Z,21.10
2018-06-15T07:56:57.630Z,21.20
2018-06-15T07:58:05.112Z,21.20
2018-06-15T07:58:38.978Z,21.20
2018-06-15T07:59:12.864Z,21.20
2018-06-15T07:59:46.778Z,21.20
2018-06-15T08:00:20.658Z,21.20